Latest Weather Observations for Geraldton Airport

IDW60801

Issued at 6:32 pm WST Monday 3 August 2015 (issued every 30 minutes, with the page automatically refreshed every 10 minutes)

About weather observations | Map of weather stations | Latest weather observations for WA | Other Formats
Station Details ID: 008315 Name: GERALDTON AIRPORT Lat: -28.80 Lon: 114.70 Height: 29.7 m
Data from the previous 72 hours. | See also: Recent months at Geraldton Airport
Date/Time
WST
Temp
°C
App
Temp
°C
Dew
Point
Rel
Hum
%
Delta-T
°C
Wind Press
QNH
hPa
Press
MSL
hPa
Rain
since 9 am
mm
Dir
 
Spd
km/h
Gust
km/h
Spd
kts
Gust
kts
03/06:30pm 14.6 11.1 8.9 68 2.9 SE 17 19 9 10 1028.1 - 0.0
03/06:00pm 14.8 11.5 9.5 70 2.7 SE 17 22 9 12 1027.7 1027.8 0.0
03/05:30pm 15.5 12.6 9.7 68 3.0 ESE 15 17 8 9 1027.3 - 0.0
03/05:00pm 16.5 12.7 8.9 61 3.9 ESE 19 24 10 13 1027.0 - 0.0
03/04:30pm 17.0 12.0 8.1 55 4.5 E 24 35 13 19 1027.0 - 0.0
03/04:00pm 17.6 12.7 8.4 55 4.7 ESE 24 33 13 18 1027.1 - 0.0
03/03:30pm 18.2 13.3 8.5 53 5.0 E 24 32 13 17 1027.1 - 0.0
03/03:00pm 17.9 12.9 8.1 52 5.0 E 24 35 13 19 1027.1 1027.2 0.0
03/02:30pm 18.0 13.8 9.7 58 4.4 E 22 30 12 16 1027.4 - 0.0
03/02:00pm 18.4 13.6 8.8 53 5.0 E 24 30 13 16 1027.7 - 0.0
03/01:30pm 18.0 13.6 8.9 55 4.7 E 22 28 12 15 1027.8 - 0.0
03/01:00pm 17.5 13.4 8.5 55 4.6 E 20 28 11 15 1028.8 - 0.0
03/12:30pm 17.5 13.1 8.8 56 4.5 E 22 33 12 18 1029.4 - 0.0
03/12:00pm 16.7 11.8 8.4 58 4.2 E 24 30 13 16 1029.5 1029.6 0.0
03/11:30am 15.6 11.0 8.0 60 3.8 ENE 22 30 12 16 1030.0 - 0.0
03/11:00am 15.6 10.5 7.8 59 3.9 ENE 24 30 13 16 1030.2 - 0.0
03/10:30am 14.2 8.2 7.2 63 3.4 ENE 28 39 15 21 1030.3 - 0.0
03/10:00am 13.5 7.1 7.1 65 3.1 ENE 30 41 16 22 1030.1 - 0.0
03/09:30am 13.0 6.2 6.9 66 2.9 ENE 32 44 17 24 1030.0 - 0.0
03/09:00am 11.8 5.0 6.9 72 2.3 ENE 32 43 17 23 1030.0 1030.1 0.0
03/08:30am 11.1 4.6 6.5 73 2.2 ENE 30 39 16 21 1030.2 - 0.0
03/08:00am 10.3 5.4 6.7 78 1.7 ENE 22 30 12 16 1030.3 - 0.0
03/07:30am 9.3 4.7 6.5 83 1.3 ENE 20 24 11 13 1030.1 - 0.0
03/07:00am 8.4 4.3 6.0 85 1.1 ENE 17 26 9 14 1029.6 - 0.0
03/06:30am 7.2 4.5 5.6 89 0.7 E 9 11 5 6 1029.4 - 0.0
03/06:00am 8.2 5.2 6.2 87 0.9 ESE 11 15 6 8 1029.1 1029.2 0.0
03/05:30am 8.2 4.5 6.5 89 0.8 SE 15 20 8 11 1029.1 - 0.0
03/05:00am 8.5 5.2 6.5 87 0.9 SE 13 15 7 8 1029.1 - 0.0
03/04:30am 9.6 5.6 6.7 82 1.4 ESE 17 22 9 12 1029.2 - 0.0
03/04:00am 9.1 5.5 6.6 84 1.2 SSE 15 20 8 11 1029.4 - 0.0
03/03:30am 9.4 5.8 6.6 83 1.3 SSE 15 20 8 11 1029.5 - 0.0
03/03:00am 8.9 4.9 6.6 85 1.1 SSE 17 20 9 11 1029.4 1029.5 0.0
03/02:30am 8.6 5.4 6.7 88 0.9 SSE 13 19 7 10 1029.7 - 0.0
03/02:00am 8.7 4.7 6.7 87 0.9 SE 17 20 9 11 1030.0 - 0.0
03/01:30am 8.7 5.1 6.8 88 0.9 SE 15 19 8 10 1030.0 - 0.0
03/01:00am 8.9 6.5 6.8 87 1.0 S 9 15 5 8 1030.2 - 0.0
03/12:30am 7.7 5.1 6.2 90 0.7 SSE 9 13 5 7 1030.1 - 0.0
03/12:00am 8.9 5.8 7.2 89 0.8 SE 13 17 7 9 1030.0 1030.1 0.0
 
Date/Time
WST
Temp
°C
App
Temp
°C
Dew
Point
Rel
Hum
%
Delta-T
°C
Wind Press
QNH
hPa
Press
MSL
hPa
Rain
since 9 am
mm
Dir
 
Spd
km/h
Gust
km/h
Spd
kts
Gust
kts
02/11:30pm 8.6 5.2 7.6 93 0.5 SE 15 17 8 9 1029.9 - 0.0
02/11:00pm 9.0 5.6 7.8 92 0.6 SSE 15 17 8 9 1029.9 - 0.0
02/10:30pm 9.0 6.1 8.0 93 0.5 SSE 13 15 7 8 1029.8 - 0.0
02/10:00pm 9.2 5.9 8.1 93 0.5 SE 15 17 8 9 1029.9 - 0.0
02/09:30pm 9.7 6.5 8.5 92 0.6 SE 15 17 8 9 1030.2 - 0.0
02/09:00pm 10.2 6.7 8.8 91 0.7 SE 17 20 9 11 1030.3 1030.4 0.0
02/08:30pm 10.7 7.2 8.9 89 0.9 SE 17 20 9 11 1030.4 - 0.0
02/08:00pm 10.4 7.7 9.0 91 0.7 SE 13 17 7 9 1030.3 - 0.0
02/07:30pm 11.0 8.4 9.4 90 0.8 SE 13 15 7 8 1030.0 - 0.0
02/07:00pm 11.6 8.7 9.8 89 0.9 SE 15 17 8 9 1029.7 - 0.0
02/06:30pm 12.3 9.7 9.5 83 1.4 SE 13 17 7 9 1029.3 - 0.0
02/06:00pm 13.9 10.5 9.2 73 2.4 ESE 17 24 9 13 1028.8 1028.9 0.0
02/05:30pm 15.3 11.6 9.5 68 3.0 ESE 19 26 10 14 1028.7 - 0.0
02/05:00pm 15.8 11.9 9.4 65 3.3 ESE 20 28 11 15 1028.6 - 0.0
02/04:30pm 15.8 11.1 9.2 65 3.4 ESE 24 35 13 19 1028.5 - 0.0
02/04:00pm 15.9 11.3 9.8 67 3.2 ESE 24 32 13 17 1028.1 - 0.0
02/03:30pm 16.1 11.6 10.0 67 3.2 ESE 24 30 13 16 1028.0 - 0.0
02/03:00pm 16.0 10.5 9.2 64 3.5 ESE 28 35 15 19 1027.8 1027.9 0.0
02/02:30pm 16.3 10.9 9.5 64 3.5 ESE 28 35 15 19 1027.7 - 0.0
02/02:00pm 16.4 11.4 9.6 64 3.5 ESE 26 37 14 20 1027.7 - 0.0
02/01:30pm 16.1 10.7 9.6 65 3.4 ESE 28 35 15 19 1028.0 - 0.0
02/01:00pm 16.8 12.3 9.9 64 3.6 E 24 32 13 17 1028.2 - 0.0
02/12:30pm 15.8 10.9 9.8 67 3.1 ESE 26 33 14 18 1028.8 - 0.0
02/12:00pm 16.7 11.8 10.0 64 3.5 ESE 26 37 14 20 1029.2 1029.3 0.0
02/11:30am 15.5 11.1 9.0 65 3.3 E 22 33 12 18 1029.6 - 0.0
02/11:00am 15.5 11.2 9.3 66 3.2 ESE 22 30 12 16 1030.0 - 0.0
02/10:30am 15.0 11.4 10.5 74 2.4 SE 20 26 11 14 1030.0 - 0.0
02/10:00am 13.9 10.4 10.2 78 1.9 SE 19 28 10 15 1029.9 - 0.0
02/09:30am 12.6 8.9 9.4 81 1.6 SSE 19 24 10 13 1029.6 - 0.0
02/09:00am 10.9 7.0 8.8 87 1.0 SSE 19 24 10 13 1029.1 1029.2 0.0
02/08:30am 9.6 6.0 8.2 91 0.7 SSE 17 24 9 13 1028.7 - 0.0
02/08:00am 8.8 4.5 7.7 93 0.5 SSE 20 28 11 15 1028.5 - 0.0
02/07:30am 8.3 4.5 7.5 95 0.4 SSE 17 22 9 12 1028.3 - 0.0
02/07:00am 8.1 3.7 7.2 94 0.4 SSE 20 28 11 15 1027.8 - 0.0
02/06:30am 8.1 4.2 7.1 93 0.5 SSE 17 20 9 11 1027.4 - 0.0
02/06:00am 8.1 4.2 7.3 95 0.4 SSE 17 22 9 12 1027.2 1027.3 0.0
02/05:30am 8.3 4.1 7.5 95 0.4 SSE 19 24 10 13 1027.0 - 0.0
02/05:00am 8.7 4.6 7.7 93 0.5 SE 19 28 10 15 1026.9 - 0.0
02/04:30am 9.0 5.3 8.0 93 0.5 SE 17 22 9 12 1026.9 - 0.0
02/04:00am 9.3 5.3 8.3 93 0.5 SE 19 24 10 13 1026.9 - 0.0
02/03:30am 9.3 5.7 8.3 93 0.5 SSE 17 22 9 12 1027.0 - 0.0
02/03:00am 9.8 6.3 8.6 92 0.6 SSE 17 20 9 11 1026.9 1027.0 0.0
02/02:30am 10.4 7.0 9.2 92 0.6 SSE 17 20 9 11 1026.7 - 0.0
02/02:00am 10.2 8.0 9.2 93 0.5 SSE 11 15 6 8 1026.9 - 0.0
02/01:30am 9.9 7.2 8.9 93 0.5 SSE 13 17 7 9 1026.9 - 0.0
02/01:00am 10.0 7.3 9.1 94 0.4 SSE 13 17 7 9 1026.7 - 0.0
02/12:30am 10.7 7.8 9.7 93 0.5 SSE 15 20 8 11 1026.6 - 0.0
02/12:00am 11.3 7.5 9.8 90 0.8 SSE 20 30 11 16 1026.5 1026.6 0.0
 
Date/Time
WST
Temp
°C
App
Temp
°C
Dew
Point
Rel
Hum
%
Delta-T
°C
Wind Press
QNH
hPa
Press
MSL
hPa
Rain
since 9 am
mm
Dir
 
Spd
km/h
Gust
km/h
Spd
kts
Gust
kts
01/11:30pm 11.3 7.5 9.8 90 0.8 SSE 20 26 11 14 1026.4 - 0.0
01/11:00pm 11.3 7.7 9.9 91 0.7 SSE 19 22 10 12 1026.6 - 0.0
01/10:30pm 10.9 7.7 10.0 94 0.5 SSE 17 20 9 11 1026.3 - 0.0
01/10:00pm 11.5 8.3 10.0 90 0.8 SSE 17 22 9 12 1026.1 - 0.0
01/09:30pm 11.8 8.1 10.1 89 0.9 SSE 20 26 11 14 1025.8 - 0.0
01/09:00pm 11.7 8.5 9.9 89 0.9 SSE 17 24 9 13 1025.5 1025.6 0.0
01/08:30pm 11.7 8.9 9.9 89 0.9 SE 15 22 8 12 1025.3 - 0.0
01/08:00pm 11.9 9.2 10.4 90 0.8 SE 15 17 8 9 1024.9 - 0.0
01/07:30pm 12.5 9.9 10.6 88 1.0 SE 15 19 8 10 1024.4 - 0.0
01/07:00pm 13.7 10.2 10.3 80 1.8 SSE 19 24 10 13 1024.1 - 0.0
01/06:30pm 13.8 10.8 10.6 81 1.7 SSE 17 20 9 11 1023.9 - 0.0
01/06:00pm 15.0 11.6 10.4 74 2.4 SSE 19 24 10 13 1023.5 1023.6 0.0
01/05:30pm 15.4 12.9 11.1 75 2.3 SSE 15 19 8 10 1023.0 - 0.0
01/05:00pm 15.9 12.4 10.8 71 2.7 SSE 20 26 11 14 1022.4 - 0.0
01/04:30pm 16.2 11.8 10.4 68 3.1 SSE 24 33 13 18 1022.0 - 0.0
01/04:00pm 16.2 11.5 10.6 69 3.0 SSE 26 33 14 18 1021.7 - 0.0
01/03:30pm 16.7 11.9 10.3 66 3.4 SSE 26 35 14 19 1021.5 - 0.0
01/03:00pm 17.3 13.0 10.6 64 3.6 SSE 24 32 13 17 1021.1 1021.2 0.0
01/02:30pm 17.4 12.8 10.9 65 3.5 SSE 26 35 14 19 1021.0 - 0.0
01/02:00pm 17.3 13.1 11.2 67 3.3 SE 24 33 13 18 1020.8 - 0.0
01/01:30pm 16.9 12.9 11.8 72 2.8 SSE 24 33 13 18 1020.7 - 0.0
01/01:00pm 17.0 12.7 11.9 72 2.8 SSE 26 39 14 21 1020.8 - 0.0
01/12:30pm 17.8 14.6 13.0 73 2.7 SSE 22 32 12 17 1020.8 - 0.0
01/12:00pm 17.5 13.3 12.4 72 2.8 SSE 26 32 14 17 1020.9 1021.0 0.0
01/11:30am 18.3 14.5 12.4 68 3.3 S 24 28 13 15 1020.9 - 0.0
01/11:00am 17.7 14.7 12.1 69 3.1 SE 19 26 10 14 1020.9 - 0.0
01/10:30am 17.3 14.3 12.4 73 2.7 ESE 20 30 11 16 1021.0 - 0.0
01/10:00am 16.7 14.2 13.4 81 1.9 SE 19 24 10 13 1020.7 - 0.0
01/09:30am 16.2 16.3 14.4 89 1.0 ESE 7 20 4 11 1020.2 - 0.0
01/09:00am 14.7 14.1 13.6 93 0.6 NE 9 11 5 6 1019.6 1019.7 7.4
01/08:30am 13.1 11.4 12.3 95 0.4 NNE 13 15 7 8 1018.9 - 7.4
01/08:00am 11.7 9.6 11.1 96 0.3 NNE 13 17 7 9 1018.4 - 7.2
01/07:30am 10.9 8.2 10.5 97 0.2 NNE 15 19 8 10 1017.9 - 7.2
01/07:00am 10.3 7.9 9.9 97 0.2 NNE 13 15 7 8 1017.5 - 7.2
01/06:30am 10.1 8.0 9.7 97 0.2 NNE 11 13 6 7 1017.1 - 7.2
01/06:00am 9.5 7.7 9.4 99 0.0 NE 9 11 5 6 1016.7 1016.7 7.2
01/05:30am 9.2 7.6 8.6 96 0.3 NE 7 9 4 5 1016.3 - 7.2
01/05:00am 9.9 8.1 9.5 97 0.2 NNE 9 9 5 5 1016.0 - 7.2
01/04:52am 9.9 8.5 9.5 97 0.2 NNE 7 9 4 5 1016.0 - 7.2
01/04:30am 9.9 9.8 9.6 98 0.1 CALM 0 0 0 0 1015.8 - 7.2
01/04:22am 10.2 10.3 10.0 99 0.1 CALM 0 0 0 0 1015.7 - 7.2
01/04:00am 10.2 9.1 9.8 97 0.2 E 6 6 3 3 1015.7 - 7.2
01/03:30am 10.4 9.1 10.0 97 0.2 SE 7 11 4 6 1015.7 - 7.2
01/03:00am 10.8 9.6 10.4 97 0.2 ENE 7 9 4 5 1015.6 1015.6 7.2
01/02:30am 11.3 9.9 10.9 97 0.2 NE 9 9 5 5 1015.5 - 7.2
01/02:00am 11.6 10.3 11.4 99 0.1 NNE 9 13 5 7 1015.4 - 7.2
01/01:30am 12.4 10.9 11.9 97 0.3 NNE 11 11 6 6 1015.2 - 7.2
01/01:00am 11.7 10.7 11.1 96 0.3 NE 7 9 4 5 1015.1 - 7.2
01/12:30am 12.5 11.8 12.0 97 0.3 ESE 7 7 4 4 1015.0 - 7.2
01/12:00am 12.2 11.0 11.6 96 0.3 N 9 11 5 6 1014.8 1014.8 7.2
 
Date/Time
WST
Temp
°C
App
Temp
°C
Dew
Point
Rel
Hum
%
Delta-T
°C
Wind Press
QNH
hPa
Press
MSL
hPa
Rain
since 9 am
mm
Dir
 
Spd
km/h
Gust
km/h
Spd
kts
Gust
kts
31/11:30pm 12.5 11.0 11.9 96 0.3 N 11 11 6 6 1014.7 - 7.2
31/11:00pm 13.1 12.6 12.2 94 0.5 NW 6 7 3 4 1014.9 - 7.2
31/10:30pm 15.0 13.9 13.0 88 1.1 SW 11 13 6 7 1014.6 - 7.2
31/10:00pm 15.4 13.8 12.9 85 1.4 WSW 13 15 7 8 1014.6 - 7.2
31/09:30pm 14.8 14.1 13.1 89 0.9 SW 9 13 5 7 1014.3 - 7.2
31/09:00pm 14.8 14.3 13.9 94 0.5 N 9 11 5 6 1014.1 1014.1 7.2
31/08:30pm 14.7 13.8 13.8 94 0.5 N 11 13 6 7 1013.8 - 7.2
31/08:00pm 15.3 14.9 14.1 92 0.7 NNW 9 11 5 6 1013.7 - 7.2
31/07:30pm 16.2 15.0 14.1 87 1.2 WNW 13 15 7 8 1013.3 - 7.2
31/07:00pm 16.6 13.0 13.2 80 1.9 WSW 24 33 13 18 1013.1 - 7.2

Other Formats:

Comma delimited format used in spreadsheet applications
http://www.bom.gov.au/fwo/IDW60801/IDW60801.94403.axf

JavaScript Object Notation format (JSON) in row-major order
http://www.bom.gov.au/fwo/IDW60801/IDW60801.94403.json